Ace High — WQZ3340 — position and weather

sailwx.info

Track history (hours):
 
Tides and Currents Weather Stations Pressure Air Temp Water Temp Dewpoint Dewpoint Depression Visibility Wind Speed Wind Dir Waves Ship Positions

Ace High

Owner: C & C BOATS INC, HUNTINGTON BEACH, CA. More information available from US FCC via Universal Licensing System and Coast Guard Vessel Documentation Center.

Last reported at 2017-Sep-19 16:59 UTC. Time now 2017-Sep-19 16:59 UTC.
Position N 34°22' W 120°10'.

Length 96 m.

Type: Passenger vessel. MMSI: 367394750.

Date/timePositionNaut miles runAvg speedWind from/ knotsBaromVisibWave heightAir tempDewpointWater temp
2017-Sep-19 16:59N 34°22' W 120°10'4 7.3
2017-Sep-19 16:30N 34°22' W 120°14'1 2.5
2017-Sep-19 15:58N 34°22' W 120°12'3 6.2
2017-Sep-19 15:30N 34°23' W 120°09'1014.3
2017-Sep-19 14:50N 34°24' W 119°58'3 3.0
2017-Sep-19 13:59N 34°26' W 119°55'0 0.0
2017-Sep-19 13:18N 34°26' W 119°55'0 0.7
2017-Sep-19 12:57N 34°26' W 119°55'0 0.4
2017-Sep-19 12:20N 34°26' W 119°55'0 0.0
2017-Sep-19 11:50N 34°26' W 119°55'0 0.0
2017-Sep-19 10:29N 34°26' W 119°55'0 0.0
2017-Sep-19 09:58N 34°26' W 119°55'0 0.0
2017-Sep-19 09:16N 34°26' W 119°55'0 0.0
2017-Sep-19 08:10N 34°26' W 119°55'0 0.0
2017-Sep-19 07:49N 34°26' W 119°55'0 0.0
2017-Sep-19 07:16N 34°26' W 119°55'0 0.1
2017-Sep-19 06:52N 34°26' W 119°55'0 0.0
2017-Sep-19 05:19N 34°26' W 119°55'0 0.0
2017-Sep-19 04:52N 34°26' W 119°55'0 0.0
2017-Sep-19 04:16N 34°26' W 119°55'0 0.0
2017-Sep-19 03:55N 34°26' W 119°55'0 0.0
2017-Sep-19 03:19N 34°26' W 119°55'0 0.0
2017-Sep-19 02:49N 34°26' W 119°55'0 0.0
2017-Sep-19 02:29N 34°26' W 119°55'0 0.0
2017-Sep-19 01:56N 34°26' W 119°55'0 0.0
2017-Sep-19 01:20N 34°26' W 119°55'0 0.0
2017-Sep-18 22:11N 34°26' W 119°55'0 0.0
2017-Sep-18 21:59N 34°26' W 119°55'0 0.0
2017-Sep-18 21:29N 34°26' W 119°55'0 0.0
2017-Sep-18 20:50N 34°26' W 119°55'0 0.0
2017-Sep-18 20:26N 34°26' W 119°55'0 0.0
2017-Sep-18 19:50N 34°26' W 119°55'0 0.0
2017-Sep-18 19:29N 34°26' W 119°55'0 0.0
2017-Sep-18 18:08N 34°26' W 119°55'0 0.0
2017-Sep-18 17:47N 34°26' W 119°55'0 0.0
2017-Sep-18 17:26N 34°26' W 119°55'0 0.0
2017-Sep-18 16:59N 34°26' W 119°55'0 0.3
2017-Sep-18 16:23N 34°26' W 119°55'0 0.6
2017-Sep-18 16:00N 34°26' W 119°56'611.8
2017-Sep-18 15:30N 34°24' W 120°02'713.4
2017-Sep-18 15:00N 34°22' W 120°10'610.0
2017-Sep-18 14:26N 34°21' W 120°17'510.9
2017-Sep-18 14:00N 34°22' W 120°11'4 3.8
2017-Sep-18 13:02N 34°23' W 120°07'0 0.1
2017-Sep-18 12:59N 34°23' W 120°07'0 0.0
2017-Sep-18 12:23N 34°23' W 120°07'0 0.0
2017-Sep-18 11:56N 34°23' W 120°07'0 0.0
2017-Sep-18 11:26N 34°23' W 120°07'0 0.0
2017-Sep-18 10:59N 34°23' W 120°07'0 0.0
2017-Sep-18 10:29N 34°23' W 120°07'0 0.0
2017-Sep-18 09:59N 34°23' W 120°07'0 0.0
2017-Sep-18 09:26N 34°23' W 120°07'0 0.0
2017-Sep-18 08:59N 34°23' W 120°07'0 0.1
2017-Sep-18 08:26N 34°23' W 120°07'0 0.0
2017-Sep-18 07:59N 34°23' W 120°07'0 0.0
2017-Sep-18 07:29N 34°23' W 120°07'0 0.0
2017-Sep-18 06:59N 34°23' W 120°07'0 0.0
2017-Sep-18 06:26N 34°23' W 120°07'0 0.0
2017-Sep-18 05:53N 34°23' W 120°07'0 0.0
2017-Sep-18 05:17N 34°23' W 120°07'0 0.1
2017-Sep-18 04:53N 34°23' W 120°07'0 0.0
2017-Sep-18 04:26N 34°23' W 120°07'0 0.0
2017-Sep-18 03:47N 34°23' W 120°07'0 0.0
2017-Sep-18 03:26N 34°23' W 120°07'0 0.0
2017-Sep-18 02:53N 34°23' W 120°07'0 0.0
2017-Sep-18 02:17N 34°23' W 120°07'0 0.0
2017-Sep-18 01:47N 34°23' W 120°07'0 0.0
2017-Sep-18 01:20N 34°23' W 120°07'0 0.1
2017-Sep-18 00:59N 34°23' W 120°07'0 0.0
2017-Sep-18 00:20N 34°23' W 120°07'0 0.1
2017-Sep-17 23:59N 34°23' W 120°07'0 0.1
2017-Sep-17 23:20N 34°23' W 120°07'0 0.0
2017-Sep-17 22:53N 34°23' W 120°07'0 0.0
2017-Sep-17 22:20N 34°23' W 120°07'0 0.1
2017-Sep-17 21:59N 34°23' W 120°07'0 0.0
2017-Sep-17 21:26N 34°23' W 120°07'0 0.0
2017-Sep-17 20:53N 34°23' W 120°07'0 0.0
2017-Sep-17 20:20N 34°23' W 120°07'0 0.1
2017-Sep-17 19:50N 34°23' W 120°07'0 0.0
2017-Sep-17 19:29N 34°23' W 120°07'0 0.0
2017-Sep-17 18:56N 34°23' W 120°07'0 0.0
2017-Sep-17 18:29N 34°23' W 120°07'0 0.0
2017-Sep-17 17:59N 34°23' W 120°07'0 0.0
2017-Sep-17 17:29N 34°23' W 120°07'0 0.0
2017-Sep-17 16:53N 34°23' W 120°07'0 0.0
2017-Sep-17 16:26N 34°23' W 120°07'0 0.0
2017-Sep-17 15:59N 34°23' W 120°07'0 0.0
2017-Sep-17 15:17N 34°23' W 120°07'3 9.8
2017-Sep-17 15:00N 34°23' W 120°10'510.6
2017-Sep-17 14:30N 34°21' W 120°16'713.6
2017-Sep-17 14:00N 34°23' W 120°08'1 2.0
2017-Sep-17 13:25N 34°23' W 120°07'0 0.1
2017-Sep-17 12:58N 34°23' W 120°07'0 0.0
2017-Sep-17 12:28N 34°23' W 120°07'0 0.0
2017-Sep-17 11:58N 34°23' W 120°07'0 0.0
2017-Sep-17 11:28N 34°23' W 120°07'0 0.0
2017-Sep-17 10:58N 34°23' W 120°07'0 0.0
2017-Sep-17 10:28N 34°23' W 120°07'0 0.1
2017-Sep-17 09:58N 34°23' W 120°07'0 0.0
2017-Sep-17 09:25N 34°23' W 120°07'0 0.0
2017-Sep-17 08:58N 34°23' W 120°07'0 0.0
2017-Sep-17 08:22N 34°23' W 120°07'0 0.0
2017-Sep-17 07:55N 34°23' W 120°07'0 0.0
2017-Sep-17 07:25N 34°23' W 120°07'0 0.0
2017-Sep-17 06:46N 34°23' W 120°07'0 0.0
2017-Sep-17 06:28N 34°23' W 120°07'0 0.0
2017-Sep-17 05:58N 34°23' W 120°07'0 0.0
2017-Sep-17 05:28N 34°23' W 120°07'0 0.0
2017-Sep-17 04:58N 34°23' W 120°07'0 0.1
2017-Sep-17 04:28N 34°23' W 120°07'0 0.0
2017-Sep-17 03:52N 34°23' W 120°07'0 0.1
2017-Sep-17 03:28N 34°23' W 120°07'0 0.0
2017-Sep-17 02:58N 34°23' W 120°07'0 0.0
2017-Sep-17 02:28N 34°23' W 120°07'0 0.0
2017-Sep-17 01:55N 34°23' W 120°07'0 0.0
2017-Sep-17 01:25N 34°23' W 120°07'0 0.0
2017-Sep-17 00:59N 34°23' W 120°07'0 0.0
2017-Sep-17 00:30N 34°23' W 120°07'0 0.0
2017-Sep-17 00:00N 34°23' W 120°07'5 9.5
2017-Sep-16 23:30N 34°24' W 120°01'510.5
2017-Sep-16 23:00N 34°26' W 119°55'0 0.3
2017-Sep-16 22:18N 34°26' W 119°55'0 0.2
2017-Sep-16 22:00N 34°26' W 119°55'0 0.0
2017-Sep-16 21:21N 34°26' W 119°55'0 0.0
2017-Sep-16 21:00N 34°26' W 119°55'0 0.0
2017-Sep-16 20:21N 34°26' W 119°55'0 0.1
2017-Sep-16 19:54N 34°26' W 119°55'0 0.1
2017-Sep-16 19:18N 34°26' W 119°55'0 0.5
2017-Sep-16 19:00N 34°26' W 119°55'4 7.6
2017-Sep-16 18:30N 34°24' W 119°60'612.0
2017-Sep-16 17:59N 34°23' W 120°07'3 7.3
2017-Sep-16 17:30N 34°22' W 120°11'4 8.2
2017-Sep-16 17:00N 34°21' W 120°16'714.4
2017-Sep-16 16:30N 34°23' W 120°08'0 0.7
2017-Sep-16 15:58N 34°23' W 120°07'0 0.0
2017-Sep-16 15:30N 34°23' W 120°07'1 2.7
2017-Sep-16 15:00N 34°24' W 120°05'813.5
2017-Sep-16 14:26N 34°24' W 119°56'2 3.8
2017-Sep-16 13:59N 34°26' W 119°55'0 0.0
2017-Sep-16 13:17N 34°26' W 119°55'0 0.0
2017-Sep-16 12:10N 34°26' W 119°55'0 0.0
2017-Sep-16 11:52N 34°26' W 119°55'0 0.0
2017-Sep-16 11:22N 34°26' W 119°55'0 0.0
2017-Sep-16 10:58N 34°26' W 119°55'0 0.0
2017-Sep-16 10:28N 34°26' W 119°55'0 0.0
2017-Sep-16 09:58N 34°26' W 119°55'0 0.0
2017-Sep-16 09:22N 34°26' W 119°55'0 0.0
2017-Sep-16 08:25N 34°26' W 119°55'0 0.0
2017-Sep-16 07:16N 34°26' W 119°55'0 0.0
2017-Sep-16 06:45N 34°26' W 119°55'0 0.0
2017-Sep-16 06:11N 34°26' W 119°55'0 0.0
2017-Sep-16 05:33N 34°26' W 119°55'0 0.0
2017-Sep-16 05:24N 34°26' W 119°55'0 0.0
2017-Sep-16 04:47N 34°26' W 119°55'0 0.0
2017-Sep-16 04:17N 34°26' W 119°55'0 0.0
2017-Sep-16 03:47N 34°26' W 119°55'0 0.0
2017-Sep-16 03:18N 34°26' W 119°55'0 0.0
2017-Sep-16 02:54N 34°26' W 119°55'0 0.0
2017-Sep-16 02:30N 34°26' W 119°55'0 0.0
2017-Sep-16 01:36N 34°26' W 119°55'0 1.9
2017-Sep-16 01:30N 34°26' W 119°55'5 9.9
2017-Sep-16 00:58N 34°24' W 120°01'510.7
2017-Sep-16 00:30N 34°23' W 120°07'611.2
2017-Sep-16 00:00N 34°21' W 120°14'3 4.9
2017-Sep-15 23:27N 34°21' W 120°17'3 7.6
2017-Sep-15 23:00N 34°22' W 120°13'2 5.0
2017-Sep-15 22:30N 34°22' W 120°10'0 0.0
2017-Sep-15 22:00N 34°22' W 120°10'0 0.0
2017-Sep-15 21:30N 34°22' W 120°10'0 0.1
2017-Sep-15 20:59N 34°22' W 120°10'0 0.1
2017-Sep-15 20:19N 34°22' W 120°10'0 0.1
2017-Sep-15 19:57N 34°22' W 120°10'0 0.0
2017-Sep-15 19:30N 34°23' W 120°10'0 0.1
2017-Sep-15 18:56N 34°22' W 120°10'0 0.0
2017-Sep-15 18:21N 34°22' W 120°10'0 0.0
2017-Sep-15 17:48N 34°22' W 120°10'0 0.0
2017-Sep-15 17:30N 34°22' W 120°10'0 0.0
2017-Sep-15 16:59N 34°23' W 120°10'0 0.0
2017-Sep-15 16:29N 34°23' W 120°10'2 4.6
2017-Sep-15 16:00N 34°22' W 120°12'1 1.3
2017-Sep-15 15:27N 34°22' W 120°13'0 0.3
2017-Sep-15 14:59N 34°22' W 120°13'3 6.1
2017-Sep-15 14:30N 34°21' W 120°17'611.5
2017-Sep-15 14:00N 34°23' W 120°10'3 5.2
2017-Sep-15 13:30N 34°23' W 120°07'0 0.1
2017-Sep-15 13:00N 34°23' W 120°07'0 0.0
2017-Sep-15 12:25N 34°23' W 120°07'0 0.0
2017-Sep-15 12:00N 34°23' W 120°07'0 0.0
2017-Sep-15 11:29N 34°23' W 120°07'0 0.0
2017-Sep-15 10:58N 34°23' W 120°07'0 0.0
2017-Sep-15 10:30N 34°23' W 120°07'0 0.0
2017-Sep-15 09:59N 34°23' W 120°07'0 0.0
2017-Sep-15 09:30N 34°23' W 120°07'0 0.0
2017-Sep-15 08:57N 34°23' W 120°07'0 0.0
2017-Sep-15 08:28N 34°23' W 120°07'0 0.0
2017-Sep-15 07:58N 34°23' W 120°07'0 0.0
2017-Sep-15 07:28N 34°23' W 120°07'0 0.0
2017-Sep-15 06:58N 34°23' W 120°07'0 0.0
2017-Sep-15 06:30N 34°23' W 120°07'0 0.1
2017-Sep-15 05:58N 34°23' W 120°07'0 0.1
2017-Sep-15 05:27N 34°23' W 120°07'0 0.1
2017-Sep-15 05:00N 34°23' W 120°07'0 0.0
2017-Sep-15 04:30N 34°23' W 120°07'1 2.0
2017-Sep-15 03:59N 34°24' W 120°06'912.5
2017-Sep-15 03:18N 34°25' W 119°56'0 0.5
2017-Sep-15 02:22N 34°26' W 119°55'0 0.0
2017-Sep-15 01:57N 34°26' W 119°55'0 0.0
2017-Sep-15 01:28N 34°26' W 119°55'0 0.5
2017-Sep-15 01:00N 34°26' W 119°55'713.4
2017-Sep-15 00:30N 34°24' W 120°03'3 6.6
2017-Sep-15 00:00N 34°23' W 120°07'610.9
2017-Sep-14 23:27N 34°22' W 120°14'2 3.1
2017-Sep-14 22:57N 34°22' W 120°12'2 4.5
2017-Sep-14 22:28N 34°23' W 120°10'0 0.0
2017-Sep-14 21:59N 34°22' W 120°10'0 0.0
2017-Sep-14 21:26N 34°23' W 120°10'0 0.0
2017-Sep-14 20:50N 34°23' W 120°10'0 0.0
2017-Sep-14 20:29N 34°22' W 120°10'0 0.0
2017-Sep-14 19:59N 34°22' W 120°10'0 0.0
2017-Sep-14 19:29N 34°22' W 120°10'0 0.0
2017-Sep-14 18:56N 34°23' W 120°10'0 0.0
2017-Sep-14 18:17N 34°23' W 120°10'0 0.2
2017-Sep-14 17:43N 34°22' W 120°10'515.0
2017-Sep-14 17:22N 34°23' W 120°03'614.9
2017-Sep-14 16:57N 34°24' W 119°56'2 3.1
2017-Sep-14 16:24N 34°26' W 119°55'2 3.5
2017-Sep-14 15:58N 34°24' W 119°56'613.1
2017-Sep-14 15:30N 34°24' W 120°03'812.2
2017-Sep-14 14:52N 34°22' W 120°12'4 8.4
2017-Sep-14 14:26N 34°21' W 120°17'611.7
2017-Sep-14 13:57N 34°22' W 120°10'3 5.6
2017-Sep-14 13:29N 34°23' W 120°07'0 0.0
2017-Sep-14 12:59N 34°23' W 120°07'0 0.0
2017-Sep-14 12:23N 34°23' W 120°07'0 0.1
2017-Sep-14 11:59N 34°23' W 120°07'0 0.0
2017-Sep-14 11:29N 34°23' W 120°07'0 0.1
2017-Sep-14 10:50N 34°23' W 120°07'0 0.0
2017-Sep-14 10:29N 34°23' W 120°07'0 0.0
2017-Sep-14 09:59N 34°23' W 120°07'0 0.0
2017-Sep-14 09:29N 34°23' W 120°07'0 0.0
2017-Sep-14 08:59N 34°23' W 120°07'0 0.0
2017-Sep-14 08:20N 34°23' W 120°07'0 0.0
2017-Sep-14 07:59N 34°23' W 120°07'0 0.0
2017-Sep-14 07:26N 34°23' W 120°07'0 0.1
2017-Sep-14 06:56N 34°23' W 120°07'0 0.0
2017-Sep-14 06:26N 34°23' W 120°07'0 0.1
2017-Sep-14 05:59N 34°23' W 120°07'0 0.1
2017-Sep-14 05:14N 34°23' W 120°07'0 0.0
2017-Sep-14 04:58N 34°23' W 120°07'0 0.0
2017-Sep-14 04:30N 34°23' W 120°07'0 0.0
2017-Sep-14 03:54N 34°23' W 120°07'0 0.0
2017-Sep-14 03:30N 34°23' W 120°07'0 0.0
2017-Sep-14 03:00N 34°23' W 120°07'0 0.0
2017-Sep-14 02:17N 34°23' W 120°07'0 0.1
2017-Sep-14 01:56N 34°23' W 120°07'0 0.0
2017-Sep-14 01:27N 34°23' W 120°07'0 0.0
2017-Sep-14 01:00N 34°23' W 120°07'0 0.1
2017-Sep-14 00:30N 34°23' W 120°07'0 0.0
2017-Sep-14 00:00N 34°23' W 120°07'0 0.0
2017-Sep-13 23:30N 34°23' W 120°07'0 0.0
2017-Sep-13 23:00N 34°23' W 120°07'0 0.0
2017-Sep-13 22:30N 34°23' W 120°07'0 0.0
2017-Sep-13 21:57N 34°23' W 120°07'0 0.0
2017-Sep-13 21:30N 34°23' W 120°07'0 0.0
2017-Sep-13 21:00N 34°23' W 120°07'0 0.0
2017-Sep-13 20:30N 34°23' W 120°07'0 0.0
2017-Sep-13 20:00N 34°23' W 120°07'0 0.0
2017-Sep-13 19:30N 34°23' W 120°07'0 0.0
2017-Sep-13 19:00N 34°23' W 120°07'2 3.6
2017-Sep-13 18:28N 34°23' W 120°09'613.2
2017-Sep-13 18:00N 34°21' W 120°16'611.7
2017-Sep-13 17:30N 34°23' W 120°10'0 0.7
2017-Sep-13 16:59N 34°22' W 120°10'0 0.0
2017-Sep-13 16:23N 34°22' W 120°10'510.9
2017-Sep-13 15:58N 34°21' W 120°15'3 6.2
2017-Sep-13 15:30N 34°22' W 120°12'611.1
2017-Sep-13 14:59N 34°24' W 120°05'813.2
2017-Sep-13 14:22N 34°25' W 119°56'0 1.2
2017-Sep-13 13:58N 34°26' W 119°55'0 0.4
2017-Sep-13 13:22N 34°26' W 119°55'0 0.0
2017-Sep-13 12:58N 34°26' W 119°55'0 0.0
2017-Sep-13 12:25N 34°26' W 119°55'0 0.0
2017-Sep-13 11:58N 34°26' W 119°55'0 0.0
2017-Sep-13 11:19N 34°26' W 119°55'0 0.0
2017-Sep-13 10:58N 34°26' W 119°55'0 0.0
2017-Sep-13 10:22N 34°26' W 119°55'0 0.0
2017-Sep-13 09:58N 34°26' W 119°55'0 0.0
2017-Sep-13 09:28N 34°26' W 119°55'0 0.0
2017-Sep-13 08:58N 34°26' W 119°55'0 0.0
2017-Sep-13 08:16N 34°26' W 119°55'0 0.0
2017-Sep-13 07:51N 34°26' W 119°55'0 0.0
2017-Sep-13 07:20N 34°26' W 119°55'0 0.0
2017-Sep-13 06:53N 34°26' W 119°55'0 0.0
2017-Sep-13 06:23N 34°26' W 119°55'0 0.0
2017-Sep-13 05:59N 34°26' W 119°55'0 0.0
2017-Sep-13 05:29N 34°26' W 119°55'0 0.0
2017-Sep-13 04:51N 34°26' W 119°55'0 0.0
2017-Sep-13 04:23N 34°26' W 119°55'0 0.0
2017-Sep-13 04:00N 34°26' W 119°55'0 0.0
2017-Sep-13 03:29N 34°26' W 119°55'0 0.0
2017-Sep-13 02:56N 34°26' W 119°55'0 0.0
2017-Sep-13 02:29N 34°26' W 119°55'0 0.0
2017-Sep-13 01:59N 34°26' W 119°55'0 0.0
2017-Sep-13 01:29N 34°26' W 119°55'0 0.5
2017-Sep-13 00:58N 34°26' W 119°56'611.8
2017-Sep-13 00:26N 34°24' W 120°03'4 8.5
2017-Sep-13 00:00N 34°23' W 120°07'4 8.3
2017-Sep-12 23:29N 34°22' W 120°12'4 7.9
2017-Sep-12 23:00N 34°21' W 120°17'611.6
2017-Sep-12 22:29N 34°22' W 120°10'0 0.0
2017-Sep-12 21:59N 34°22' W 120°10'2 4.7
2017-Sep-12 21:29N 34°23' W 120°07'510.1
2017-Sep-12 21:00N 34°22' W 120°13'3 5.5
2017-Sep-12 20:27N 34°21' W 120°16'0 0.2
2017-Sep-12 20:00N 34°21' W 120°16'0 0.3
2017-Sep-12 19:24N 34°21' W 120°17'0 0.7
2017-Sep-12 19:00N 34°21' W 120°17'611.3
2017-Sep-12 18:30N 34°22' W 120°10'0 0.4
2017-Sep-12 17:45N 34°22' W 120°10'0 0.2
2017-Sep-12 17:30N 34°22' W 120°10'0 0.0
2017-Sep-12 17:00N 34°22' W 120°10'0 0.0
2017-Sep-12 16:30N 34°22' W 120°10'610.9
2017-Sep-12 16:00N 34°21' W 120°16'510.0
2017-Sep-12 15:27N 34°23' W 120°10'3 6.9
2017-Sep-12 15:00N 34°23' W 120°06'914.0
2017-Sep-12 14:23N 34°24' W 119°56'2 1.0
2017-Sep-12 12:49N 34°26' W 119°55'0 0.1
2017-Sep-12 12:28N 34°26' W 119°55'0 0.0
2017-Sep-12 11:44N 34°26' W 119°55'0 0.0
2017-Sep-12 10:50N 34°26' W 119°55'0 0.0
2017-Sep-12 10:26N 34°26' W 119°55'0 0.0
2017-Sep-12 09:41N 34°26' W 119°55'0 0.0
2017-Sep-12 09:14N 34°26' W 119°55'0 0.0
2017-Sep-12 08:53N 34°26' W 119°55'0 0.0
2017-Sep-12 08:29N 34°26' W 119°55'0 0.0
2017-Sep-12 07:59N 34°26' W 119°55'0 0.0
2017-Sep-12 07:23N 34°26' W 119°55'0 0.0
2017-Sep-12 06:50N 34°26' W 119°55'0 0.0
2017-Sep-12 06:20N 34°26' W 119°55'0 0.0
2017-Sep-12 05:59N 34°26' W 119°55'0 0.0
2017-Sep-12 05:23N 34°26' W 119°55'0 0.0
2017-Sep-12 04:38N 34°26' W 119°55'0 0.0
2017-Sep-12 04:26N 34°26' W 119°55'0 0.0
2017-Sep-12 03:59N 34°26' W 119°55'0 0.0
2017-Sep-12 03:29N 34°26' W 119°55'0 0.0
2017-Sep-12 02:53N 34°26' W 119°55'0 0.0
2017-Sep-12 02:29N 34°26' W 119°55'0 0.0
2017-Sep-12 01:59N 34°26' W 119°55'0 0.0
2017-Sep-12 01:29N 34°26' W 119°55'0 0.0
2017-Sep-12 00:59N 34°26' W 119°55'0 0.0
2017-Sep-12 00:17N 34°26' W 119°55'0 0.0
2017-Sep-11 23:59N 34°26' W 119°55'0 0.0
2017-Sep-11 23:23N 34°26' W 119°55'0 0.0
2017-Sep-11 22:59N 34°26' W 119°55'0 0.0
2017-Sep-11 22:14N 34°26' W 119°55'0 0.2
2017-Sep-11 21:56N 34°26' W 119°55'0 0.0
2017-Sep-11 21:23N 34°26' W 119°55'0 0.1
2017-Sep-11 20:59N 34°26' W 119°55'0 0.0
2017-Sep-11 20:29N 34°26' W 119°55'0 0.0
2017-Sep-11 19:38N 34°26' W 119°55'0 0.3
2017-Sep-11 19:29N 34°26' W 119°55'0 0.0
2017-Sep-11 18:47N 34°26' W 119°55'0 0.0
2017-Sep-11 18:17N 34°26' W 119°55'0 0.0
2017-Sep-11 17:53N 34°26' W 119°55'0 0.0
2017-Sep-11 17:23N 34°26' W 119°55'0 0.0
2017-Sep-11 16:38N 34°26' W 119°55'0 0.1
2017-Sep-11 16:14N 34°26' W 119°55'0 0.0
2017-Sep-11 15:53N 34°26' W 119°55'3 8.3
2017-Sep-11 15:30N 34°24' W 119°59'612.1
2017-Sep-11 15:00N 34°24' W 120°06'4 7.0
2017-Sep-11 14:28N 34°24' W 120°01'510.9
2017-Sep-11 13:59N 34°26' W 119°55'0 0.3
2017-Sep-11 13:17N 34°26' W 119°55'0 0.0
2017-Sep-11 12:56N 34°26' W 119°55'0 0.0
2017-Sep-11 12:29N 34°26' W 119°55'0 0.0
2017-Sep-11 11:53N 34°26' W 119°55'0 0.0
2017-Sep-11 11:29N 34°26' W 119°55'0 0.0
2017-Sep-11 10:59N 34°26' W 119°55'0 0.0
2017-Sep-11 10:26N 34°26' W 119°55'0 0.0
2017-Sep-11 09:53N 34°26' W 119°55'0 0.0
2017-Sep-11 09:17N 34°26' W 119°55'0 0.1
2017-Sep-11 08:59N 34°26' W 119°55'0 0.0
2017-Sep-11 08:20N 34°26' W 119°55'0 0.0
2017-Sep-11 07:53N 34°26' W 119°55'0 0.0
2017-Sep-11 07:01N 34°26' W 119°55'0 0.0
2017-Sep-11 06:58N 34°26' W 119°55'0 0.0
2017-Sep-11 06:22N 34°26' W 119°55'0 0.0
2017-Sep-11 05:49N 34°26' W 119°55'0 0.0
2017-Sep-11 05:10N 34°26' W 119°55'0 0.1
2017-Sep-11 04:58N 34°26' W 119°55'0 0.1
2017-Sep-11 04:19N 34°26' W 119°55'0 0.0
2017-Sep-11 03:58N 34°26' W 119°55'0 0.0
2017-Sep-11 03:25N 34°26' W 119°55'0 0.0
2017-Sep-11 02:49N 34°26' W 119°55'0 0.0
2017-Sep-11 02:28N 34°26' W 119°55'0 0.0
2017-Sep-11 01:49N 34°26' W 119°55'0 0.0
2017-Sep-11 01:28N 34°26' W 119°55'0 0.0
2017-Sep-11 00:58N 34°26' W 119°55'1 2.9
2017-Sep-11 00:30N 34°24' W 119°56'612.4
2017-Sep-11 00:00N 34°24' W 120°03'510.9
2017-Sep-10 23:30N 34°23' W 120°10'5 8.2
2017-Sep-10 22:54N 34°21' W 120°16'511.4
2017-Sep-10 22:30N 34°22' W 120°10'0 0.7
2017-Sep-10 21:58N 34°22' W 120°10'0 0.0
2017-Sep-10 21:30N 34°23' W 120°10'0 0.0
2017-Sep-10 20:50N 34°22' W 120°10'0 0.0
2017-Sep-10 20:25N 34°23' W 120°10'0 0.0
2017-Sep-10 19:59N 34°22' W 120°10'0 0.0
2017-Sep-10 19:30N 34°23' W 120°10'0 0.0
2017-Sep-10 18:54N 34°23' W 120°10'0 0.1
2017-Sep-10 18:27N 34°23' W 120°10'0 0.0
2017-Sep-10 18:00N 34°23' W 120°10'0 0.0
2017-Sep-10 17:27N 34°23' W 120°10'0 0.0
2017-Sep-10 17:00N 34°23' W 120°10'0 0.0
2017-Sep-10 16:30N 34°22' W 120°10'0 0.0
2017-Sep-10 16:00N 34°23' W 120°10'0 0.0
2017-Sep-10 15:29N 34°23' W 120°10'0 0.0
2017-Sep-10 15:00N 34°23' W 120°10'1211.9
2017-Sep-10 13:59N 34°25' W 119°56'1 1.6
2017-Sep-10 13:27N 34°26' W 119°55'0 0.6
2017-Sep-10 13:00N 34°26' W 119°55'0 0.3
2017-Sep-10 12:10N 34°26' W 119°55'0 0.0
2017-Sep-10 11:58N 34°26' W 119°55'0 0.0
2017-Sep-10 11:19N 34°26' W 119°55'0 0.0
2017-Sep-10 10:58N 34°26' W 119°55'0 0.0
2017-Sep-10 10:16N 34°26' W 119°55'0 0.0
2017-Sep-10 09:55N 34°26' W 119°55'0 0.0
2017-Sep-10 09:25N 34°26' W 119°55'0 0.0
2017-Sep-10 08:58N 34°26' W 119°55'0 0.0
2017-Sep-10 08:28N 34°26' W 119°55'0 0.0
2017-Sep-10 07:55N 34°26' W 119°55'0 0.0
2017-Sep-10 07:19N 34°26' W 119°55'0 0.0
2017-Sep-10 06:58N 34°26' W 119°55'0 0.0
2017-Sep-10 06:28N 34°26' W 119°55'0 0.0
2017-Sep-10 05:58N 34°26' W 119°55'0 0.0
2017-Sep-10 05:19N 34°26' W 119°55'0 0.0
2017-Sep-10 04:55N 34°26' W 119°55'0 0.0
2017-Sep-10 04:19N 34°26' W 119°55'0 0.0
2017-Sep-10 03:58N 34°26' W 119°55'0 0.0
2017-Sep-10 03:25N 34°26' W 119°55'0 0.0
2017-Sep-10 02:58N 34°26' W 119°55'0 0.0
2017-Sep-10 02:19N 34°26' W 119°55'0 0.0
2017-Sep-10 01:52N 34°26' W 119°55'0 0.0
2017-Sep-10 01:22N 34°26' W 119°55'1 2.5
2017-Sep-10 01:00N 34°25' W 119°56'612.4
2017-Sep-10 00:30N 34°24' W 120°03'5 9.8
2017-Sep-10 00:00N 34°23' W 120°09'612.2
2017-Sep-09 23:30N 34°21' W 120°16'4 7.3
2017-Sep-09 23:00N 34°22' W 120°12'2 2.9
2017-Sep-09 22:24N 34°22' W 120°10'0 0.0
2017-Sep-09 22:00N 34°22' W 120°10'0 0.0
2017-Sep-09 21:24N 34°22' W 120°10'0 0.0
2017-Sep-09 21:00N 34°22' W 120°10'0 0.0
2017-Sep-09 20:30N 34°22' W 120°10'2 4.8
2017-Sep-09 20:00N 34°22' W 120°13'1 2.8
2017-Sep-09 19:30N 34°22' W 120°14'4 7.1
2017-Sep-09 18:59N 34°23' W 120°10'0 0.0
2017-Sep-09 18:26N 34°23' W 120°10'0 0.0
2017-Sep-09 17:53N 34°23' W 120°10'0 0.0
2017-Sep-09 17:29N 34°23' W 120°10'  
Track history (hours):
 
Tides and Currents Weather Stations Pressure Air Temp Water Temp Dewpoint Dewpoint Depression Visibility Wind Speed Wind Dir Waves Ship Positions

Ace High

Owner: C & C BOATS INC, HUNTINGTON BEACH, CA. More information available from US FCC via Universal Licensing System and Coast Guard Vessel Documentation Center.

Last reported at 2017-Sep-19 16:59 UTC. Time now 2017-Sep-19 16:59 UTC.
Position N 34°22' W 120°10'.

Length 96 m.

Type: Passenger vessel. MMSI: 367394750.

Date/timePositionNaut miles runAvg speedWind from/ knotsBaromVisibWave heightAir tempDewpointWater temp
2017-Sep-19 16:59N 34°22' W 120°10'4 7.3
2017-Sep-19 16:30N 34°22' W 120°14'1 2.5
2017-Sep-19 15:58N 34°22' W 120°12'3 6.2
2017-Sep-19 15:30N 34°23' W 120°09'1014.3
2017-Sep-19 14:50N 34°24' W 119°58'3 3.0
2017-Sep-19 13:59N 34°26' W 119°55'0 0.0
2017-Sep-19 13:18N 34°26' W 119°55'0 0.7
2017-Sep-19 12:57N 34°26' W 119°55'0 0.4
2017-Sep-19 12:20N 34°26' W 119°55'0 0.0
2017-Sep-19 11:50N 34°26' W 119°55'0 0.0
2017-Sep-19 10:29N 34°26' W 119°55'0 0.0
2017-Sep-19 09:58N 34°26' W 119°55'0 0.0
2017-Sep-19 09:16N 34°26' W 119°55'0 0.0
2017-Sep-19 08:10N 34°26' W 119°55'0 0.0
2017-Sep-19 07:49N 34°26' W 119°55'0 0.0
2017-Sep-19 07:16N 34°26' W 119°55'0 0.1
2017-Sep-19 06:52N 34°26' W 119°55'0 0.0
2017-Sep-19 05:19N 34°26' W 119°55'0 0.0
2017-Sep-19 04:52N 34°26' W 119°55'0 0.0
2017-Sep-19 04:16N 34°26' W 119°55'0 0.0
2017-Sep-19 03:55N 34°26' W 119°55'0 0.0
2017-Sep-19 03:19N 34°26' W 119°55'0 0.0
2017-Sep-19 02:49N 34°26' W 119°55'0 0.0
2017-Sep-19 02:29N 34°26' W 119°55'0 0.0
2017-Sep-19 01:56N 34°26' W 119°55'0 0.0
2017-Sep-19 01:20N 34°26' W 119°55'0 0.0
2017-Sep-18 22:11N 34°26' W 119°55'0 0.0
2017-Sep-18 21:59N 34°26' W 119°55'0 0.0
2017-Sep-18 21:29N 34°26' W 119°55'0 0.0
2017-Sep-18 20:50N 34°26' W 119°55'0 0.0
2017-Sep-18 20:26N 34°26' W 119°55'0 0.0
2017-Sep-18 19:50N 34°26' W 119°55'0 0.0
2017-Sep-18 19:29N 34°26' W 119°55'0 0.0
2017-Sep-18 18:08N 34°26' W 119°55'0 0.0
2017-Sep-18 17:47N 34°26' W 119°55'0 0.0
2017-Sep-18 17:26N 34°26' W 119°55'0 0.0
2017-Sep-18 16:59N 34°26' W 119°55'0 0.3
2017-Sep-18 16:23N 34°26' W 119°55'0 0.6
2017-Sep-18 16:00N 34°26' W 119°56'611.8
2017-Sep-18 15:30N 34°24' W 120°02'713.4
2017-Sep-18 15:00N 34°22' W 120°10'610.0
2017-Sep-18 14:26N 34°21' W 120°17'510.9
2017-Sep-18 14:00N 34°22' W 120°11'4 3.8
2017-Sep-18 13:02N 34°23' W 120°07'0 0.1
2017-Sep-18 12:59N 34°23' W 120°07'0 0.0
2017-Sep-18 12:23N 34°23' W 120°07'0 0.0
2017-Sep-18 11:56N 34°23' W 120°07'0 0.0
2017-Sep-18 11:26N 34°23' W 120°07'0 0.0
2017-Sep-18 10:59N 34°23' W 120°07'0 0.0
2017-Sep-18 10:29N 34°23' W 120°07'0 0.0
2017-Sep-18 09:59N 34°23' W 120°07'0 0.0
2017-Sep-18 09:26N 34°23' W 120°07'0 0.0
2017-Sep-18 08:59N 34°23' W 120°07'0 0.1
2017-Sep-18 08:26N 34°23' W 120°07'0 0.0
2017-Sep-18 07:59N 34°23' W 120°07'0 0.0
2017-Sep-18 07:29N 34°23' W 120°07'0 0.0
2017-Sep-18 06:59N 34°23' W 120°07'0 0.0
2017-Sep-18 06:26N 34°23' W 120°07'0 0.0
2017-Sep-18 05:53N 34°23' W 120°07'0 0.0
2017-Sep-18 05:17N 34°23' W 120°07'0 0.1
2017-Sep-18 04:53N 34°23' W 120°07'0 0.0
2017-Sep-18 04:26N 34°23' W 120°07'0 0.0
2017-Sep-18 03:47N 34°23' W 120°07'0 0.0
2017-Sep-18 03:26N 34°23' W 120°07'0 0.0
2017-Sep-18 02:53N 34°23' W 120°07'0 0.0
2017-Sep-18 02:17N 34°23' W 120°07'0 0.0
2017-Sep-18 01:47N 34°23' W 120°07'0 0.0
2017-Sep-18 01:20N 34°23' W 120°07'0 0.1
2017-Sep-18 00:59N 34°23' W 120°07'0 0.0
2017-Sep-18 00:20N 34°23' W 120°07'0 0.1
2017-Sep-17 23:59N 34°23' W 120°07'0 0.1
2017-Sep-17 23:20N 34°23' W 120°07'0 0.0
2017-Sep-17 22:53N 34°23' W 120°07'0 0.0
2017-Sep-17 22:20N 34°23' W 120°07'0 0.1
2017-Sep-17 21:59N 34°23' W 120°07'0 0.0
2017-Sep-17 21:26N 34°23' W 120°07'0 0.0
2017-Sep-17 20:53N 34°23' W 120°07'0 0.0
2017-Sep-17 20:20N 34°23' W 120°07'0 0.1
2017-Sep-17 19:50N 34°23' W 120°07'0 0.0
2017-Sep-17 19:29N 34°23' W 120°07'0 0.0
2017-Sep-17 18:56N 34°23' W 120°07'0 0.0
2017-Sep-17 18:29N 34°23' W 120°07'0 0.0
2017-Sep-17 17:59N 34°23' W 120°07'0 0.0
2017-Sep-17 17:29N 34°23' W 120°07'0 0.0
2017-Sep-17 16:53N 34°23' W 120°07'0 0.0
2017-Sep-17 16:26N 34°23' W 120°07'0 0.0
2017-Sep-17 15:59N 34°23' W 120°07'0 0.0
2017-Sep-17 15:17N 34°23' W 120°07'3 9.8
2017-Sep-17 15:00N 34°23' W 120°10'510.6
2017-Sep-17 14:30N 34°21' W 120°16'713.6
2017-Sep-17 14:00N 34°23' W 120°08'1 2.0
2017-Sep-17 13:25N 34°23' W 120°07'0 0.1
2017-Sep-17 12:58N 34°23' W 120°07'0 0.0
2017-Sep-17 12:28N 34°23' W 120°07'0 0.0
2017-Sep-17 11:58N 34°23' W 120°07'0 0.0
2017-Sep-17 11:28N 34°23' W 120°07'0 0.0
2017-Sep-17 10:58N 34°23' W 120°07'0 0.0
2017-Sep-17 10:28N 34°23' W 120°07'0 0.1
2017-Sep-17 09:58N 34°23' W 120°07'0 0.0
2017-Sep-17 09:25N 34°23' W 120°07'0 0.0
2017-Sep-17 08:58N 34°23' W 120°07'0 0.0
2017-Sep-17 08:22N 34°23' W 120°07'0 0.0
2017-Sep-17 07:55N 34°23' W 120°07'0 0.0
2017-Sep-17 07:25N 34°23' W 120°07'0 0.0
2017-Sep-17 06:46N 34°23' W 120°07'0 0.0
2017-Sep-17 06:28N 34°23' W 120°07'0 0.0
2017-Sep-17 05:58N 34°23' W 120°07'0 0.0
2017-Sep-17 05:28N 34°23' W 120°07'0 0.0
2017-Sep-17 04:58N 34°23' W 120°07'0 0.1
2017-Sep-17 04:28N 34°23' W 120°07'0 0.0
2017-Sep-17 03:52N 34°23' W 120°07'0 0.1
2017-Sep-17 03:28N 34°23' W 120°07'0 0.0
2017-Sep-17 02:58N 34°23' W 120°07'0 0.0
2017-Sep-17 02:28N 34°23' W 120°07'0 0.0
2017-Sep-17 01:55N 34°23' W 120°07'0 0.0
2017-Sep-17 01:25N 34°23' W 120°07'0 0.0
2017-Sep-17 00:59N 34°23' W 120°07'0 0.0
2017-Sep-17 00:30N 34°23' W 120°07'0 0.0
2017-Sep-17 00:00N 34°23' W 120°07'5 9.5
2017-Sep-16 23:30N 34°24' W 120°01'510.5
2017-Sep-16 23:00N 34°26' W 119°55'0 0.3
2017-Sep-16 22:18N 34°26' W 119°55'0 0.2
2017-Sep-16 22:00N 34°26' W 119°55'0 0.0
2017-Sep-16 21:21N 34°26' W 119°55'0 0.0
2017-Sep-16 21:00N 34°26' W 119°55'0 0.0
2017-Sep-16 20:21N 34°26' W 119°55'0 0.1
2017-Sep-16 19:54N 34°26' W 119°55'0 0.1
2017-Sep-16 19:18N 34°26' W 119°55'0 0.5
2017-Sep-16 19:00N 34°26' W 119°55'4 7.6
2017-Sep-16 18:30N 34°24' W 119°60'612.0
2017-Sep-16 17:59N 34°23' W 120°07'3 7.3
2017-Sep-16 17:30N 34°22' W 120°11'4 8.2
2017-Sep-16 17:00N 34°21' W 120°16'714.4
2017-Sep-16 16:30N 34°23' W 120°08'0 0.7
2017-Sep-16 15:58N 34°23' W 120°07'0 0.0
2017-Sep-16 15:30N 34°23' W 120°07'1 2.7
2017-Sep-16 15:00N 34°24' W 120°05'813.5
2017-Sep-16 14:26N 34°24' W 119°56'2 3.8
2017-Sep-16 13:59N 34°26' W 119°55'0 0.0
2017-Sep-16 13:17N 34°26' W 119°55'0 0.0
2017-Sep-16 12:10N 34°26' W 119°55'0 0.0
2017-Sep-16 11:52N 34°26' W 119°55'0 0.0
2017-Sep-16 11:22N 34°26' W 119°55'0 0.0
2017-Sep-16 10:58N 34°26' W 119°55'0 0.0
2017-Sep-16 10:28N 34°26' W 119°55'0 0.0
2017-Sep-16 09:58N 34°26' W 119°55'0 0.0
2017-Sep-16 09:22N 34°26' W 119°55'0 0.0
2017-Sep-16 08:25N 34°26' W 119°55'0 0.0
2017-Sep-16 07:16N 34°26' W 119°55'0 0.0
2017-Sep-16 06:45N 34°26' W 119°55'0 0.0
2017-Sep-16 06:11N 34°26' W 119°55'0 0.0
2017-Sep-16 05:33N 34°26' W 119°55'0 0.0
2017-Sep-16 05:24N 34°26' W 119°55'0 0.0
2017-Sep-16 04:47N 34°26' W 119°55'0 0.0
2017-Sep-16 04:17N 34°26' W 119°55'0 0.0
2017-Sep-16 03:47N 34°26' W 119°55'0 0.0
2017-Sep-16 03:18N 34°26' W 119°55'0 0.0
2017-Sep-16 02:54N 34°26' W 119°55'0 0.0
2017-Sep-16 02:30N 34°26' W 119°55'0 0.0
2017-Sep-16 01:36N 34°26' W 119°55'0 1.9
2017-Sep-16 01:30N 34°26' W 119°55'5 9.9
2017-Sep-16 00:58N 34°24' W 120°01'510.7
2017-Sep-16 00:30N 34°23' W 120°07'611.2
2017-Sep-16 00:00N 34°21' W 120°14'3 4.9
2017-Sep-15 23:27N 34°21' W 120°17'3 7.6
2017-Sep-15 23:00N 34°22' W 120°13'2 5.0
2017-Sep-15 22:30N 34°22' W 120°10'0 0.0
2017-Sep-15 22:00N 34°22' W 120°10'0 0.0
2017-Sep-15 21:30N 34°22' W 120°10'0 0.1
2017-Sep-15 20:59N 34°22' W 120°10'0 0.1
2017-Sep-15 20:19N 34°22' W 120°10'0 0.1
2017-Sep-15 19:57N 34°22' W 120°10'0 0.0
2017-Sep-15 19:30N 34°23' W 120°10'0 0.1
2017-Sep-15 18:56N 34°22' W 120°10'0 0.0
2017-Sep-15 18:21N 34°22' W 120°10'0 0.0
2017-Sep-15 17:48N 34°22' W 120°10'0 0.0
2017-Sep-15 17:30N 34°22' W 120°10'0 0.0
2017-Sep-15 16:59N 34°23' W 120°10'0 0.0
2017-Sep-15 16:29N 34°23' W 120°10'2 4.6
2017-Sep-15 16:00N 34°22' W 120°12'1 1.3
2017-Sep-15 15:27N 34°22' W 120°13'0 0.3
2017-Sep-15 14:59N 34°22' W 120°13'3 6.1
2017-Sep-15 14:30N 34°21' W 120°17'611.5
2017-Sep-15 14:00N 34°23' W 120°10'3 5.2
2017-Sep-15 13:30N 34°23' W 120°07'0 0.1
2017-Sep-15 13:00N 34°23' W 120°07'0 0.0
2017-Sep-15 12:25N 34°23' W 120°07'0 0.0
2017-Sep-15 12:00N 34°23' W 120°07'0 0.0
2017-Sep-15 11:29N 34°23' W 120°07'0 0.0
2017-Sep-15 10:58N 34°23' W 120°07'0 0.0
2017-Sep-15 10:30N 34°23' W 120°07'0 0.0
2017-Sep-15 09:59N 34°23' W 120°07'0 0.0
2017-Sep-15 09:30N 34°23' W 120°07'0 0.0
2017-Sep-15 08:57N 34°23' W 120°07'0 0.0
2017-Sep-15 08:28N 34°23' W 120°07'0 0.0
2017-Sep-15 07:58N 34°23' W 120°07'0 0.0
2017-Sep-15 07:28N 34°23' W 120°07'0 0.0
2017-Sep-15 06:58N 34°23' W 120°07'0 0.0
2017-Sep-15 06:30N 34°23' W 120°07'0 0.1
2017-Sep-15 05:58N 34°23' W 120°07'0 0.1
2017-Sep-15 05:27N 34°23' W 120°07'0 0.1
2017-Sep-15 05:00N 34°23' W 120°07'0 0.0
2017-Sep-15 04:30N 34°23' W 120°07'1 2.0
2017-Sep-15 03:59N 34°24' W 120°06'912.5
2017-Sep-15 03:18N 34°25' W 119°56'0 0.5
2017-Sep-15 02:22N 34°26' W 119°55'0 0.0
2017-Sep-15 01:57N 34°26' W 119°55'0 0.0
2017-Sep-15 01:28N 34°26' W 119°55'0 0.5
2017-Sep-15 01:00N 34°26' W 119°55'713.4
2017-Sep-15 00:30N 34°24' W 120°03'3 6.6
2017-Sep-15 00:00N 34°23' W 120°07'610.9
2017-Sep-14 23:27N 34°22' W 120°14'2 3.1
2017-Sep-14 22:57N 34°22' W 120°12'2 4.5
2017-Sep-14 22:28N 34°23' W 120°10'0 0.0
2017-Sep-14 21:59N 34°22' W 120°10'0 0.0
2017-Sep-14 21:26N 34°23' W 120°10'0 0.0
2017-Sep-14 20:50N 34°23' W 120°10'0 0.0
2017-Sep-14 20:29N 34°22' W 120°10'0 0.0
2017-Sep-14 19:59N 34°22' W 120°10'0 0.0
2017-Sep-14 19:29N 34°22' W 120°10'0 0.0
2017-Sep-14 18:56N 34°23' W 120°10'0 0.0
2017-Sep-14 18:17N 34°23' W 120°10'0 0.2
2017-Sep-14 17:43N 34°22' W 120°10'515.0
2017-Sep-14 17:22N 34°23' W 120°03'614.9
2017-Sep-14 16:57N 34°24' W 119°56'2 3.1
2017-Sep-14 16:24N 34°26' W 119°55'2 3.5
2017-Sep-14 15:58N 34°24' W 119°56'613.1
2017-Sep-14 15:30N 34°24' W 120°03'812.2
2017-Sep-14 14:52N 34°22' W 120°12'4 8.4
2017-Sep-14 14:26N 34°21' W 120°17'611.7
2017-Sep-14 13:57N 34°22' W 120°10'3 5.6
2017-Sep-14 13:29N 34°23' W 120°07'0 0.0
2017-Sep-14 12:59N 34°23' W 120°07'0 0.0
2017-Sep-14 12:23N 34°23' W 120°07'0 0.1
2017-Sep-14 11:59N 34°23' W 120°07'0 0.0
2017-Sep-14 11:29N 34°23' W 120°07'0 0.1
2017-Sep-14 10:50N 34°23' W 120°07'0 0.0
2017-Sep-14 10:29N 34°23' W 120°07'0 0.0
2017-Sep-14 09:59N 34°23' W 120°07'0 0.0
2017-Sep-14 09:29N 34°23' W 120°07'0 0.0
2017-Sep-14 08:59N 34°23' W 120°07'0 0.0
2017-Sep-14 08:20N 34°23' W 120°07'0 0.0
2017-Sep-14 07:59N 34°23' W 120°07'0 0.0
2017-Sep-14 07:26N 34°23' W 120°07'0 0.1
2017-Sep-14 06:56N 34°23' W 120°07'0 0.0
2017-Sep-14 06:26N 34°23' W 120°07'0 0.1
2017-Sep-14 05:59N 34°23' W 120°07'0 0.1
2017-Sep-14 05:14N 34°23' W 120°07'0 0.0
2017-Sep-14 04:58N 34°23' W 120°07'0 0.0
2017-Sep-14 04:30N 34°23' W 120°07'0 0.0
2017-Sep-14 03:54N 34°23' W 120°07'0 0.0
2017-Sep-14 03:30N 34°23' W 120°07'0 0.0
2017-Sep-14 03:00N 34°23' W 120°07'0 0.0
2017-Sep-14 02:17N 34°23' W 120°07'0 0.1
2017-Sep-14 01:56N 34°23' W 120°07'0 0.0
2017-Sep-14 01:27N 34°23' W 120°07'0 0.0
2017-Sep-14 01:00N 34°23' W 120°07'0 0.1
2017-Sep-14 00:30N 34°23' W 120°07'0 0.0
2017-Sep-14 00:00N 34°23' W 120°07'0 0.0
2017-Sep-13 23:30N 34°23' W 120°07'0 0.0
2017-Sep-13 23:00N 34°23' W 120°07'0 0.0
2017-Sep-13 22:30N 34°23' W 120°07'0 0.0
2017-Sep-13 21:57N 34°23' W 120°07'0 0.0
2017-Sep-13 21:30N 34°23' W 120°07'0 0.0
2017-Sep-13 21:00N 34°23' W 120°07'0 0.0
2017-Sep-13 20:30N 34°23' W 120°07'0 0.0
2017-Sep-13 20:00N 34°23' W 120°07'0 0.0
2017-Sep-13 19:30N 34°23' W 120°07'0 0.0
2017-Sep-13 19:00N 34°23' W 120°07'2 3.6
2017-Sep-13 18:28N 34°23' W 120°09'613.2
2017-Sep-13 18:00N 34°21' W 120°16'611.7
2017-Sep-13 17:30N 34°23' W 120°10'0 0.7
2017-Sep-13 16:59N 34°22' W 120°10'0 0.0
2017-Sep-13 16:23N 34°22' W 120°10'510.9
2017-Sep-13 15:58N 34°21' W 120°15'3 6.2
2017-Sep-13 15:30N 34°22' W 120°12'611.1
2017-Sep-13 14:59N 34°24' W 120°05'813.2
2017-Sep-13 14:22N 34°25' W 119°56'0 1.2
2017-Sep-13 13:58N 34°26' W 119°55'0 0.4
2017-Sep-13 13:22N 34°26' W 119°55'0 0.0
2017-Sep-13 12:58N 34°26' W 119°55'0 0.0
2017-Sep-13 12:25N 34°26' W 119°55'0 0.0
2017-Sep-13 11:58N 34°26' W 119°55'0 0.0
2017-Sep-13 11:19N 34°26' W 119°55'0 0.0
2017-Sep-13 10:58N 34°26' W 119°55'0 0.0
2017-Sep-13 10:22N 34°26' W 119°55'0 0.0
2017-Sep-13 09:58N 34°26' W 119°55'0 0.0
2017-Sep-13 09:28N 34°26' W 119°55'0 0.0
2017-Sep-13 08:58N 34°26' W 119°55'0 0.0
2017-Sep-13 08:16N 34°26' W 119°55'0 0.0
2017-Sep-13 07:51N 34°26' W 119°55'0 0.0
2017-Sep-13 07:20N 34°26' W 119°55'0 0.0
2017-Sep-13 06:53N 34°26' W 119°55'0 0.0
2017-Sep-13 06:23N 34°26' W 119°55'0 0.0
2017-Sep-13 05:59N 34°26' W 119°55'0 0.0
2017-Sep-13 05:29N 34°26' W 119°55'0 0.0
2017-Sep-13 04:51N 34°26' W 119°55'0 0.0
2017-Sep-13 04:23N 34°26' W 119°55'0 0.0
2017-Sep-13 04:00N 34°26' W 119°55'0 0.0
2017-Sep-13 03:29N 34°26' W 119°55'0 0.0
2017-Sep-13 02:56N 34°26' W 119°55'0 0.0
2017-Sep-13 02:29N 34°26' W 119°55'0 0.0
2017-Sep-13 01:59N 34°26' W 119°55'0 0.0
2017-Sep-13 01:29N 34°26' W 119°55'0 0.5
2017-Sep-13 00:58N 34°26' W 119°56'611.8
2017-Sep-13 00:26N 34°24' W 120°03'4 8.5
2017-Sep-13 00:00N 34°23' W 120°07'4 8.3
2017-Sep-12 23:29N 34°22' W 120°12'4 7.9
2017-Sep-12 23:00N 34°21' W 120°17'611.6
2017-Sep-12 22:29N 34°22' W 120°10'0 0.0
2017-Sep-12 21:59N 34°22' W 120°10'2 4.7
2017-Sep-12 21:29N 34°23' W 120°07'510.1
2017-Sep-12 21:00N 34°22' W 120°13'3 5.5
2017-Sep-12 20:27N 34°21' W 120°16'0 0.2
2017-Sep-12 20:00N 34°21' W 120°16'0 0.3
2017-Sep-12 19:24N 34°21' W 120°17'0 0.7
2017-Sep-12 19:00N 34°21' W 120°17'611.3
2017-Sep-12 18:30N 34°22' W 120°10'0 0.4
2017-Sep-12 17:45N 34°22' W 120°10'0 0.2
2017-Sep-12 17:30N 34°22' W 120°10'0 0.0
2017-Sep-12 17:00N 34°22' W 120°10'0 0.0
2017-Sep-12 16:30N 34°22' W 120°10'610.9
2017-Sep-12 16:00N 34°21' W 120°16'510.0
2017-Sep-12 15:27N 34°23' W 120°10'3 6.9
2017-Sep-12 15:00N 34°23' W 120°06'914.0
2017-Sep-12 14:23N 34°24' W 119°56'2 1.0
2017-Sep-12 12:49N 34°26' W 119°55'0 0.1
2017-Sep-12 12:28N 34°26' W 119°55'0 0.0
2017-Sep-12 11:44N 34°26' W 119°55'0 0.0
2017-Sep-12 10:50N 34°26' W 119°55'0 0.0
2017-Sep-12 10:26N 34°26' W 119°55'0 0.0
2017-Sep-12 09:41N 34°26' W 119°55'0 0.0
2017-Sep-12 09:14N 34°26' W 119°55'0 0.0
2017-Sep-12 08:53N 34°26' W 119°55'0 0.0
2017-Sep-12 08:29N 34°26' W 119°55'0 0.0
2017-Sep-12 07:59N 34°26' W 119°55'0 0.0
2017-Sep-12 07:23N 34°26' W 119°55'0 0.0
2017-Sep-12 06:50N 34°26' W 119°55'0 0.0
2017-Sep-12 06:20N 34°26' W 119°55'0 0.0
2017-Sep-12 05:59N 34°26' W 119°55'0 0.0
2017-Sep-12 05:23N 34°26' W 119°55'0 0.0
2017-Sep-12 04:38N 34°26' W 119°55'0 0.0
2017-Sep-12 04:26N 34°26' W 119°55'0 0.0
2017-Sep-12 03:59N 34°26' W 119°55'0 0.0
2017-Sep-12 03:29N 34°26' W 119°55'0 0.0
2017-Sep-12 02:53N 34°26' W 119°55'0 0.0
2017-Sep-12 02:29N 34°26' W 119°55'0 0.0
2017-Sep-12 01:59N 34°26' W 119°55'0 0.0
2017-Sep-12 01:29N 34°26' W 119°55'0 0.0
2017-Sep-12 00:59N 34°26' W 119°55'0 0.0
2017-Sep-12 00:17N 34°26' W 119°55'0 0.0
2017-Sep-11 23:59N 34°26' W 119°55'0 0.0
2017-Sep-11 23:23N 34°26' W 119°55'0 0.0
2017-Sep-11 22:59N 34°26' W 119°55'0 0.0
2017-Sep-11 22:14N 34°26' W 119°55'0 0.2
2017-Sep-11 21:56N 34°26' W 119°55'0 0.0
2017-Sep-11 21:23N 34°26' W 119°55'0 0.1
2017-Sep-11 20:59N 34°26' W 119°55'0 0.0
2017-Sep-11 20:29N 34°26' W 119°55'0 0.0
2017-Sep-11 19:38N 34°26' W 119°55'0 0.3
2017-Sep-11 19:29N 34°26' W 119°55'0 0.0
2017-Sep-11 18:47N 34°26' W 119°55'0 0.0
2017-Sep-11 18:17N 34°26' W 119°55'0 0.0
2017-Sep-11 17:53N 34°26' W 119°55'0 0.0
2017-Sep-11 17:23N 34°26' W 119°55'0 0.0
2017-Sep-11 16:38N 34°26' W 119°55'0 0.1
2017-Sep-11 16:14N 34°26' W 119°55'0 0.0
2017-Sep-11 15:53N 34°26' W 119°55'3 8.3
2017-Sep-11 15:30N 34°24' W 119°59'612.1
2017-Sep-11 15:00N 34°24' W 120°06'4 7.0
2017-Sep-11 14:28N 34°24' W 120°01'510.9
2017-Sep-11 13:59N 34°26' W 119°55'0 0.3
2017-Sep-11 13:17N 34°26' W 119°55'0 0.0
2017-Sep-11 12:56N 34°26' W 119°55'0 0.0
2017-Sep-11 12:29N 34°26' W 119°55'0 0.0
2017-Sep-11 11:53N 34°26' W 119°55'0 0.0
2017-Sep-11 11:29N 34°26' W 119°55'0 0.0
2017-Sep-11 10:59N 34°26' W 119°55'0 0.0
2017-Sep-11 10:26N 34°26' W 119°55'0 0.0
2017-Sep-11 09:53N 34°26' W 119°55'0 0.0
2017-Sep-11 09:17N 34°26' W 119°55'0 0.1
2017-Sep-11 08:59N 34°26' W 119°55'0 0.0
2017-Sep-11 08:20N 34°26' W 119°55'0 0.0
2017-Sep-11 07:53N 34°26' W 119°55'0 0.0
2017-Sep-11 07:01N 34°26' W 119°55'0 0.0
2017-Sep-11 06:58N 34°26' W 119°55'0 0.0
2017-Sep-11 06:22N 34°26' W 119°55'0 0.0
2017-Sep-11 05:49N 34°26' W 119°55'0 0.0
2017-Sep-11 05:10N 34°26' W 119°55'0 0.1
2017-Sep-11 04:58N 34°26' W 119°55'0 0.1
2017-Sep-11 04:19N 34°26' W 119°55'0 0.0
2017-Sep-11 03:58N 34°26' W 119°55'0 0.0
2017-Sep-11 03:25N 34°26' W 119°55'0 0.0
2017-Sep-11 02:49N 34°26' W 119°55'0 0.0
2017-Sep-11 02:28N 34°26' W 119°55'0 0.0
2017-Sep-11 01:49N 34°26' W 119°55'0 0.0
2017-Sep-11 01:28N 34°26' W 119°55'0 0.0
2017-Sep-11 00:58N 34°26' W 119°55'1 2.9
2017-Sep-11 00:30N 34°24' W 119°56'612.4
2017-Sep-11 00:00N 34°24' W 120°03'510.9
2017-Sep-10 23:30N 34°23' W 120°10'5 8.2
2017-Sep-10 22:54N 34°21' W 120°16'511.4
2017-Sep-10 22:30N 34°22' W 120°10'0 0.7
2017-Sep-10 21:58N 34°22' W 120°10'0 0.0
2017-Sep-10 21:30N 34°23' W 120°10'0 0.0
2017-Sep-10 20:50N 34°22' W 120°10'0 0.0
2017-Sep-10 20:25N 34°23' W 120°10'0 0.0
2017-Sep-10 19:59N 34°22' W 120°10'0 0.0
2017-Sep-10 19:30N 34°23' W 120°10'0 0.0
2017-Sep-10 18:54N 34°23' W 120°10'0 0.1
2017-Sep-10 18:27N 34°23' W 120°10'0 0.0
2017-Sep-10 18:00N 34°23' W 120°10'0 0.0
2017-Sep-10 17:27N 34°23' W 120°10'0 0.0
2017-Sep-10 17:00N 34°23' W 120°10'0 0.0
2017-Sep-10 16:30N 34°22' W 120°10'0 0.0
2017-Sep-10 16:00N 34°23' W 120°10'0 0.0
2017-Sep-10 15:29N 34°23' W 120°10'0 0.0
2017-Sep-10 15:00N 34°23' W 120°10'1211.9
2017-Sep-10 13:59N 34°25' W 119°56'1 1.6
2017-Sep-10 13:27N 34°26' W 119°55'0 0.6
2017-Sep-10 13:00N 34°26' W 119°55'0 0.3
2017-Sep-10 12:10N 34°26' W 119°55'0 0.0
2017-Sep-10 11:58N 34°26' W 119°55'0 0.0
2017-Sep-10 11:19N 34°26' W 119°55'0 0.0
2017-Sep-10 10:58N 34°26' W 119°55'0 0.0
2017-Sep-10 10:16N 34°26' W 119°55'0 0.0
2017-Sep-10 09:55N 34°26' W 119°55'0 0.0
2017-Sep-10 09:25N 34°26' W 119°55'0 0.0
2017-Sep-10 08:58N 34°26' W 119°55'0 0.0
2017-Sep-10 08:28N 34°26' W 119°55'0 0.0
2017-Sep-10 07:55N 34°26' W 119°55'0 0.0
2017-Sep-10 07:19N 34°26' W 119°55'0 0.0
2017-Sep-10 06:58N 34°26' W 119°55'0 0.0
2017-Sep-10 06:28N 34°26' W 119°55'0 0.0
2017-Sep-10 05:58N 34°26' W 119°55'0 0.0
2017-Sep-10 05:19N 34°26' W 119°55'0 0.0
2017-Sep-10 04:55N 34°26' W 119°55'0 0.0
2017-Sep-10 04:19N 34°26' W 119°55'0 0.0
2017-Sep-10 03:58N 34°26' W 119°55'0 0.0
2017-Sep-10 03:25N 34°26' W 119°55'0 0.0
2017-Sep-10 02:58N 34°26' W 119°55'0 0.0
2017-Sep-10 02:19N 34°26' W 119°55'0 0.0
2017-Sep-10 01:52N 34°26' W 119°55'0 0.0
2017-Sep-10 01:22N 34°26' W 119°55'1 2.5
2017-Sep-10 01:00N 34°25' W 119°56'612.4
2017-Sep-10 00:30N 34°24' W 120°03'5 9.8
2017-Sep-10 00:00N 34°23' W 120°09'612.2
2017-Sep-09 23:30N 34°21' W 120°16'4 7.3
2017-Sep-09 23:00N 34°22' W 120°12'2 2.9
2017-Sep-09 22:24N 34°22' W 120°10'0 0.0
2017-Sep-09 22:00N 34°22' W 120°10'0 0.0
2017-Sep-09 21:24N 34°22' W 120°10'0 0.0
2017-Sep-09 21:00N 34°22' W 120°10'0 0.0
2017-Sep-09 20:30N 34°22' W 120°10'2 4.8
2017-Sep-09 20:00N 34°22' W 120°13'1 2.8
2017-Sep-09 19:30N 34°22' W 120°14'4 7.1
2017-Sep-09 18:59N 34°23' W 120°10'0 0.0
2017-Sep-09 18:26N 34°23' W 120°10'0 0.0
2017-Sep-09 17:53N 34°23' W 120°10'0 0.0
2017-Sep-09 17:29N 34°23' W 120°10'  

Dump ship's entire track history